Coesse, Indiana
Current Conditions -  °F | °C
As of 8:54 PM on Thursday 20 Nov 2014 (Local Time) from KFWA Reporting Station
Clear Clear  
Wind Chill:   Ceiling: Unl
Heat Index: 18°   Visibility: 10mi
Dew Point:   Wind: 9mph
Humidity: 65%   Direction: 270°W
Pressure: 30.16"   Gusts: NA
Location:  41.1479°N, 85.4772°W
Report Text: KFWA 210154Z 27008KT 10SM CLR M08/M13 A3016 RMK AO2 SLP226 T10781133
Loading
Personal Weather Stations






























Interactive Weather Map New forecast layout! Learn more

10-Day Weather Forecast

Advertisements
Track Severe Weather on mobile